Time;durP1;ratioP1;P1;durP2;ratioP2;P2;SDS_P1;SDS_P2;PMS_P1;PMS_P2;Temp;Humidity;BMP_temperature;BMP_pressure;BME280_temperature;BME280_humidity;BME280_pressure;Samples;Min_cycle;Max_cycle;Signal;HPM_P1;HPM_P2
2022/08/27 00:01:20;;;;;;;14.80;5.50;;;;;;;19.54;98.99;100629.55;106962;1273;76001;-86
2022/08/27 00:03:48;;;;;;;13.20;5.80;;;;;;;19.53;99.01;100626.98;106983;1273;69455;-85
2022/08/27 00:06:18;;;;;;;13.50;5.40;;;;;;;19.50;99.42;100626.23;106926;1274;73101;-85
2022/08/27 00:08:46;;;;;;;16.40;5.80;;;;;;;19.49;99.32;100629.31;107570;1273;63740;-85
2022/08/27 00:11:16;;;;;;;13.10;5.60;;;;;;;19.48;99.44;100628.92;107344;1274;61191;-85
2022/08/27 00:13:44;;;;;;;15.20;5.50;;;;;;;19.48;99.26;100629.20;106567;1274;75087;-86
2022/08/27 00:16:13;;;;;;;12.80;5.20;;;;;;;19.49;99.07;100623.67;106938;1273;72448;-85
2022/08/27 00:18:41;;;;;;;13.90;5.80;;;;;;;19.48;99.24;100625.81;107216;1274;74014;-85
2022/08/27 00:21:08;;;;;;;15.70;5.50;;;;;;;19.46;99.37;100623.18;106941;1274;62412;-84
2022/08/27 00:23:35;;;;;;;16.40;5.50;;;;;;;19.44;99.50;100621.08;107326;1272;61859;-84
2022/08/27 00:26:06;;;;;;;14.50;5.30;;;;;;;19.42;99.43;100621.69;107007;1274;77516;-84
2022/08/27 00:28:33;;;;;;;16.00;5.80;;;;;;;19.41;99.58;100619.77;107471;1272;71538;-84
2022/08/27 00:31:00;;;;;;;14.90;5.90;;;;;;;19.41;99.35;100612.89;107132;1272;74231;-85
2022/08/27 00:33:29;;;;;;;14.30;5.90;;;;;;;19.42;99.27;100615.48;107017;1273;62438;-84
2022/08/27 00:35:56;;;;;;;14.00;5.30;;;;;;;19.42;99.31;100614.95;107141;1271;59689;-85
2022/08/27 00:38:23;;;;;;;13.10;4.70;;;;;;;19.40;99.14;100614.64;106820;1274;75390;-86
2022/08/27 00:40:52;;;;;;;14.90;4.90;;;;;;;19.40;98.87;100615.73;107293;1274;71869;-85
2022/08/27 00:43:24;;;;;;;14.80;5.10;;;;;;;19.40;98.46;100618.67;107239;1273;72835;-86
2022/08/27 00:45:57;;;;;;;15.90;5.20;;;;;;;19.42;98.33;100620.91;106929;1273;62305;-85
2022/08/27 00:48:28;;;;;;;13.80;4.90;;;;;;;19.42;97.99;100623.14;107025;1273;61537;-86
2022/08/27 00:50:56;;;;;;;11.30;5.00;;;;;;;19.43;97.85;100620.42;107364;1272;76021;-85
2022/08/27 00:53:28;;;;;;;14.50;4.70;;;;;;;19.45;97.86;100620.03;107393;1272;72509;-86
2022/08/27 00:56:06;;;;;;;12.90;5.20;;;;;;;19.45;97.56;100622.84;106663;1273;74437;-86
2022/08/27 00:58:46;;;;;;;16.20;4.90;;;;;;;19.46;97.45;100621.77;106967;1272;62857;-86
2022/08/27 01:01:16;;;;;;;15.50;5.60;;;;;;;19.45;97.29;100626.28;107354;1274;61097;-85
2022/08/27 01:03:46;;;;;;;17.20;5.40;;;;;;;19.44;97.15;100624.96;106810;1274;74940;-86
2022/08/27 01:06:14;;;;;;;15.20;5.20;;;;;;;19.42;97.06;100628.19;107376;1273;72061;-86
2022/08/27 01:09:01;;;;;;;18.30;5.00;;;;;;;19.42;96.99;100627.60;107093;1273;72751;-85
2022/08/27 01:11:30;;;;;;;12.90;4.60;;;;;;;19.41;97.00;100630.48;106988;1273;63343;-87
2022/08/27 01:13:57;;;;;;;11.90;4.60;;;;;;;19.40;96.84;100636.64;107179;1274;62016;-86
2022/08/27 01:16:34;;;;;;;13.80;5.00;;;;;;;19.39;96.74;100642.27;106954;1273;76106;-85
2022/08/27 01:19:06;;;;;;;14.20;5.10;;;;;;;19.37;96.80;100640.08;106771;1273;71989;-85
2022/08/27 01:22:27;;;;;;;16.40;5.40;;;;;;;19.37;96.85;100644.92;107153;1274;73011;-85
2022/08/27 01:24:58;;;;;;;15.60;5.80;;;;;;;19.39;96.57;100640.17;106491;1279;62494;-85
2022/08/27 01:27:30;;;;;;;13.20;4.60;;;;;;;19.41;96.48;100639.80;107439;1273;61234;-85
2022/08/27 01:29:57;;;;;;;13.50;4.70;;;;;;;19.42;96.41;100642.50;107053;1272;77094;-84
2022/08/27 01:32:27;;;;;;;14.90;5.20;;;;;;;19.40;96.29;100646.56;107940;1272;71324;-85
2022/08/27 01:34:55;;;;;;;10.80;4.60;;;;;;;19.39;96.19;100646.30;107613;1274;73882;-85
2022/08/27 01:37:24;;;;;;;12.50;4.90;;;;;;;19.38;96.20;100647.86;107564;1273;62930;-84
2022/08/27 01:39:54;;;;;;;14.10;5.00;;;;;;;19.37;96.20;100647.19;107075;1273;61682;-85
2022/08/27 01:42:31;;;;;;;13.80;5.20;;;;;;;19.39;96.15;100649.38;107557;1273;75392;-86
2022/08/27 01:45:20;;;;;;;11.50;5.10;;;;;;;19.37;96.21;100649.55;107542;1274;72404;-85
2022/08/27 01:47:47;;;;;;;14.00;5.40;;;;;;;19.34;96.06;100650.30;106859;1271;73074;-84
2022/08/27 01:50:30;;;;;;;15.30;6.00;;;;;;;19.34;96.11;100652.23;107475;1272;61838;-85
2022/08/27 01:53:01;;;;;;;13.20;5.60;;;;;;;19.28;96.41;100657.95;107157;1274;61260;-86
2022/08/27 01:55:28;;;;;;;14.30;4.60;;;;;;;19.24;96.27;100654.95;107208;1273;76533;-85
2022/08/27 01:58:18;;;;;;;16.60;6.00;;;;;;;19.22;96.30;100654.54;107616;1261;72595;-86
2022/08/27 02:00:51;;;;;;;14.60;5.10;;;;;;;19.19;96.44;100658.80;106952;1274;74353;-84
2022/08/27 02:03:23;;;;;;;14.80;5.00;;;;;;;19.17;96.41;100656.73;106934;1275;61811;-84
2022/08/27 02:05:50;;;;;;;14.30;5.90;;;;;;;19.17;96.45;100660.00;107452;1274;61033;-85
2022/08/27 02:08:17;;;;;;;15.50;5.70;;;;;;;19.17;96.32;100665.16;106471;1277;76138;-85
2022/08/27 02:10:46;;;;;;;15.40;5.40;;;;;;;19.14;96.46;100666.86;106848;1276;71528;-84
2022/08/27 02:13:14;;;;;;;12.80;5.60;;;;;;;19.11;96.52;100661.52;107287;1274;72954;-85
2022/08/27 02:15:42;;;;;;;15.30;5.60;;;;;;;19.10;96.55;100666.07;107316;1274;62383;-85
2022/08/27 02:18:10;;;;;;;15.20;5.70;;;;;;;19.09;96.58;100670.15;107374;1274;61603;-85
2022/08/27 02:20:38;;;;;;;13.70;5.20;;;;;;;19.07;96.70;100669.46;107405;1274;76010;-85
2022/08/27 02:23:05;;;;;;;15.80;5.40;;;;;;;19.07;96.62;100669.48;106997;1275;71630;-84
2022/08/27 02:25:32;;;;;;;13.20;5.60;;;;;;;19.05;96.69;100673.60;106929;1276;74308;-84
2022/08/27 02:28:00;;;;;;;13.40;5.00;;;;;;;19.04;96.41;100678.53;106723;1276;62963;-84
2022/08/27 02:30:30;;;;;;;13.70;5.30;;;;;;;19.02;96.27;100675.46;106672;1275;61201;-84
2022/08/27 02:32:59;;;;;;;13.40;5.30;;;;;;;19.01;96.13;100677.26;107009;1271;75972;-84
2022/08/27 02:35:28;;;;;;;10.90;4.80;;;;;;;19.01;96.09;100674.19;106529;1273;71342;-85
2022/08/27 02:37:55;;;;;;;13.40;5.50;;;;;;;19.01;96.01;100675.43;106828;1271;72005;-87
2022/08/27 02:40:24;;;;;;;15.50;5.90;;;;;;;19.04;96.01;100677.59;106793;1271;62252;-84
2022/08/27 02:42:51;;;;;;;12.60;5.00;;;;;;;19.05;95.92;100681.30;107061;1271;61564;-85
2022/08/27 02:45:19;;;;;;;13.60;5.50;;;;;;;19.05;95.92;100679.19;107145;1274;75036;-85
2022/08/27 02:47:47;;;;;;;12.10;5.60;;;;;;;19.04;95.94;100681.64;107047;1269;70403;-85
2022/08/27 02:50:15;;;;;;;11.30;5.00;;;;;;;19.03;95.88;100681.39;107221;1273;72052;-85
2022/08/27 02:52:44;;;;;;;12.60;5.50;;;;;;;19.02;95.97;100680.67;107196;1271;62343;-84
2022/08/27 02:55:13;;;;;;;15.30;6.00;;;;;;;18.99;96.05;100679.48;106650;1274;61195;-85
2022/08/27 02:57:43;;;;;;;13.90;6.10;;;;;;;18.96;96.16;100680.46;107013;1271;75795;-85
2022/08/27 03:00:13;;;;;;;14.00;5.50;;;;;;;18.94;96.22;100678.11;106890;1274;70473;-85
2022/08/27 03:02:40;;;;;;;11.10;5.20;;;;;;;18.91;96.42;100674.44;107309;1273;73996;-85
2022/08/27 03:05:08;;;;;;;8.90;5.40;;;;;;;18.87;96.48;100671.11;106945;1273;61947;-84
2022/08/27 03:07:36;;;;;;;11.80;5.30;;;;;;;18.86;96.59;100672.02;106562;1274;61087;-84
2022/08/27 03:10:06;;;;;;;13.30;5.60;;;;;;;18.83;96.61;100671.13;107158;1273;76663;-85
2022/08/27 03:12:35;;;;;;;12.20;5.10;;;;;;;18.83;96.76;100673.56;107196;1273;72653;-84
2022/08/27 03:15:06;;;;;;;12.60;5.90;;;;;;;18.81;96.75;100666.44;106754;1273;74822;-84
2022/08/27 03:20:19;;;;;;;12.50;5.70;;;;;;;18.82;96.82;100669.58;106729;1274;61534;-85
2022/08/27 03:22:45;;;;;;;11.50;5.40;;;;;;;18.81;96.60;100666.81;107146;1271;75383;-83
2022/08/27 03:25:14;;;;;;;10.90;5.50;;;;;;;18.82;96.62;100665.23;106761;1273;72406;-84
2022/08/27 03:27:42;;;;;;;14.00;5.30;;;;;;;18.84;96.53;100666.73;106937;1274;72994;-84
2022/08/27 03:30:14;;;;;;;11.20;5.70;;;;;;;18.86;96.39;100662.19;106753;1274;62713;-85
2022/08/27 03:32:42;;;;;;;11.30;5.10;;;;;;;18.86;96.42;100664.45;107343;1273;61071;-84
2022/08/27 03:35:10;;;;;;;13.20;5.20;;;;;;;18.86;96.34;100658.92;106727;1274;74007;-84
2022/08/27 03:37:38;;;;;;;14.80;5.70;;;;;;;18.85;96.25;100655.30;106710;1274;72371;-85
2022/08/27 03:40:07;;;;;;;13.40;5.40;;;;;;;18.86;96.10;100655.91;106491;1273;74184;-84
2022/08/27 03:42:35;;;;;;;13.00;4.80;;;;;;;18.86;96.13;100655.86;106726;1274;62415;-84
2022/08/27 03:45:02;;;;;;;14.80;5.70;;;;;;;18.87;96.01;100653.32;107206;1273;61627;-84
2022/08/27 03:47:31;;;;;;;14.50;5.20;;;;;;;18.90;96.13;100653.70;106690;1273;76201;-84
2022/08/27 03:50:01;;;;;;;14.80;5.10;;;;;;;18.89;95.92;100650.31;107070;1273;72675;-84
2022/08/27 03:52:28;;;;;;;13.30;5.30;;;;;;;18.91;95.78;100653.67;106843;1273;74220;-84
2022/08/27 03:54:57;;;;;;;15.80;5.10;;;;;;;18.90;95.60;100655.39;106650;1273;63244;-85
2022/08/27 03:57:24;;;;;;;12.30;5.30;;;;;;;18.91;95.60;100657.77;106574;1273;61761;-84
2022/08/27 03:59:51;;;;;;;11.10;5.00;;;;;;;18.91;95.48;100655.66;106931;1273;75024;-84
2022/08/27 04:02:20;;;;;;;9.60;5.10;;;;;;;18.90;95.51;100653.66;107264;1274;71369;-84
2022/08/27 04:04:50;;;;;;;14.70;5.10;;;;;;;18.89;95.53;100653.09;106632;1274;74063;-84
2022/08/27 04:07:17;;;;;;;10.90;4.80;;;;;;;18.87;95.56;100661.27;106470;1274;63628;-84
2022/08/27 04:09:45;;;;;;;12.00;4.70;;;;;;;18.84;95.61;100658.44;106906;1273;62483;-84
2022/08/27 04:12:12;;;;;;;12.40;4.50;;;;;;;18.81;95.75;100656.33;107353;1273;75141;-83
2022/08/27 04:14:39;;;;;;;18.00;5.20;;;;;;;18.78;95.68;100654.95;106811;1273;71477;-83
2022/08/27 04:17:06;;;;;;;13.50;4.80;;;;;;;18.76;95.92;100658.27;106958;1273;74027;-84
2022/08/27 04:19:34;;;;;;;11.00;5.30;;;;;;;18.75;95.88;100658.11;106653;1273;63331;-83
2022/08/27 04:22:05;;;;;;;12.10;5.20;;;;;;;18.76;95.80;100660.70;107293;1273;61308;-84
2022/08/27 04:24:34;;;;;;;12.00;5.10;;;;;;;18.76;95.71;100662.32;106735;1274;76263;-85
2022/08/27 04:27:01;;;;;;;11.20;5.30;;;;;;;18.77;95.72;100660.08;107087;1273;71565;-85
2022/08/27 04:29:28;;;;;;;12.70;5.40;;;;;;;18.77;95.81;100666.10;106536;1274;73074;-84
2022/08/27 04:31:55;;;;;;;12.80;5.10;;;;;;;18.78;95.87;100666.94;106928;1274;62407;-84
2022/08/27 04:34:23;;;;;;;15.00;6.30;;;;;;;18.81;95.85;100669.02;106733;1273;60519;-85
2022/08/27 04:36:50;;;;;;;15.80;5.80;;;;;;;18.83;95.74;100668.73;106827;1274;76398;-84
2022/08/27 04:39:19;;;;;;;14.40;5.50;;;;;;;18.84;95.67;100671.98;107100;1273;73246;-85
2022/08/27 04:41:48;;;;;;;13.20;5.30;;;;;;;18.84;95.73;100670.33;106932;1274;73838;-85
2022/08/27 04:44:15;;;;;;;13.00;5.40;;;;;;;18.84;95.62;100671.95;106579;1274;62432;-86
2022/08/27 04:46:43;;;;;;;16.40;5.90;;;;;;;18.84;95.64;100676.89;107030;1273;59581;-85
2022/08/27 04:49:16;;;;;;;12.90;5.10;;;;;;;18.82;95.57;100681.98;106500;1273;74922;-84
2022/08/27 04:51:43;;;;;;;12.70;5.10;;;;;;;18.81;95.48;100678.98;106556;1274;71455;-85
2022/08/27 04:54:11;;;;;;;9.60;4.90;;;;;;;18.84;95.52;100684.25;106882;1264;73831;-84
2022/08/27 04:56:39;;;;;;;11.20;4.50;;;;;;;18.85;95.29;100686.14;107227;1273;62063;-85
2022/08/27 04:59:09;;;;;;;10.90;4.50;;;;;;;18.86;95.08;100687.46;107050;1273;61650;-84
2022/08/27 05:01:37;;;;;;;12.50;4.60;;;;;;;18.84;94.73;100689.48;107130;1274;75075;-85
2022/08/27 05:04:05;;;;;;;10.80;3.90;;;;;;;18.83;94.29;100686.09;106681;1271;72966;-84
2022/08/27 05:06:32;;;;;;;10.70;3.70;;;;;;;18.81;93.96;100691.77;106904;1274;73374;-84
2022/08/27 05:08:59;;;;;;;11.20;3.90;;;;;;;18.78;93.63;100688.28;106958;1274;62269;-84
2022/08/27 05:11:31;;;;;;;13.70;3.90;;;;;;;18.77;93.41;100685.88;107543;1273;60611;-84
2022/08/27 05:13:58;;;;;;;10.00;3.50;;;;;;;18.75;93.36;100685.02;107549;1273;76129;-84
2022/08/27 05:16:25;;;;;;;10.10;3.60;;;;;;;18.76;93.08;100685.14;106829;1274;72405;-85
2022/08/27 05:18:52;;;;;;;10.80;3.90;;;;;;;18.75;93.12;100686.27;107103;1273;73092;-84
2022/08/27 05:21:29;;;;;;;10.20;3.80;;;;;;;18.75;93.07;100684.27;107204;1274;62390;-85
2022/08/27 05:23:57;;;;;;;11.70;3.70;;;;;;;18.72;92.90;100685.23;107006;1273;61356;-84
2022/08/27 05:26:25;;;;;;;11.60;3.90;;;;;;;18.71;92.79;100687.11;106729;1274;76002;-84
2022/08/27 05:28:53;;;;;;;8.10;3.80;;;;;;;18.70;93.03;100683.77;107053;1273;71398;-85
2022/08/27 05:31:24;;;;;;;10.00;3.40;;;;;;;18.70;93.08;100682.86;107209;1273;74095;-84
2022/08/27 05:33:54;;;;;;;9.70;3.50;;;;;;;18.71;92.94;100681.48;107041;1273;62234;-85
2022/08/27 05:36:26;;;;;;;10.90;3.90;;;;;;;18.71;92.84;100683.63;107046;1272;61787;-84
2022/08/27 05:38:54;;;;;;;8.90;3.60;;;;;;;18.72;92.68;100679.25;107001;1272;76170;-84
2022/08/27 05:41:26;;;;;;;11.60;4.10;;;;;;;18.73;92.49;100673.31;106755;1274;71526;-85
2022/08/27 05:44:06;;;;;;;12.30;4.10;;;;;;;18.74;92.47;100670.81;106461;1273;72949;-83
2022/08/27 05:46:53;;;;;;;11.10;4.20;;;;;;;18.79;92.31;100677.14;106834;1273;63335;-83
2022/08/27 05:49:20;;;;;;;14.30;3.90;;;;;;;18.80;92.07;100672.27;106944;1273;60530;-83
2022/08/27 05:51:48;;;;;;;9.50;3.70;;;;;;;18.84;91.93;100675.53;107030;1273;76021;-83
2022/08/27 05:54:18;;;;;;;13.70;4.00;;;;;;;18.87;91.88;100675.73;106995;1273;71382;-83
2022/08/27 05:56:46;;;;;;;11.00;3.60;;;;;;;18.90;91.61;100673.02;107292;1274;73194;-83
2022/08/27 06:02:01;;;;;;;12.30;3.60;;;;;;;18.89;90.83;100673.84;106687;1273;61404;-83
2022/08/27 06:04:28;;;;;;;12.70;3.80;;;;;;;18.89;91.02;100674.97;107033;1274;75085;-83
2022/08/27 06:06:56;;;;;;;9.60;3.40;;;;;;;18.87;90.84;100678.58;106868;1273;71386;-83
2022/08/27 06:09:28;;;;;;;11.00;3.60;;;;;;;18.87;90.75;100676.02;107159;1273;73112;-86
2022/08/27 06:11:57;;;;;;;13.80;3.80;;;;;;;18.84;90.65;100681.02;107299;1273;61849;-87
2022/08/27 06:14:25;;;;;;;11.60;3.60;;;;;;;18.87;90.88;100677.39;107441;1273;60994;-88
2022/08/27 06:16:52;;;;;;;10.20;3.30;;;;;;;18.91;90.96;100678.95;107811;1273;74938;-88
2022/08/27 06:19:20;;;;;;;11.60;3.70;;;;;;;18.92;90.50;100681.46;107005;1273;71414;-87
2022/08/27 06:21:48;;;;;;;12.60;3.60;;;;;;;18.94;90.39;100680.38;107458;1273;73023;-87
2022/08/27 06:24:35;;;;;;;12.40;3.50;;;;;;;18.98;90.26;100686.48;107458;1273;63861;-88
2022/08/27 06:27:04;;;;;;;10.40;3.40;;;;;;;19.00;90.25;100685.42;107065;1273;61257;-88
2022/08/27 06:29:35;;;;;;;9.70;3.30;;;;;;;19.02;90.03;100684.39;107575;1273;74191;-88
2022/08/27 06:32:04;;;;;;;10.00;3.30;;;;;;;19.07;89.85;100684.98;107122;1274;71434;-87
2022/08/27 06:34:32;;;;;;;12.00;3.70;;;;;;;19.09;89.64;100693.10;107739;1273;73032;-87
2022/08/27 06:37:00;;;;;;;11.80;3.30;;;;;;;19.11;89.42;100692.71;107281;1273;62432;-87
2022/08/27 06:39:27;;;;;;;9.90;3.40;;;;;;;19.13;89.22;100690.58;106955;1273;61269;-88
2022/08/27 06:41:56;;;;;;;9.80;3.10;;;;;;;19.13;89.10;100689.38;106516;1271;1525789;-87
2022/08/27 06:44:24;;;;;;;9.70;3.30;;;;;;;19.16;88.97;100690.05;107736;1273;71486;-89
2022/08/27 06:46:51;;;;;;;8.90;2.90;;;;;;;19.16;88.95;100692.15;107285;1273;73151;-85
2022/08/27 06:49:18;;;;;;;8.00;3.00;;;;;;;19.18;88.78;100689.06;107013;1273;63480;-83
2022/08/27 06:51:46;;;;;;;10.10;3.20;;;;;;;19.20;88.62;100692.14;107348;1273;60956;-82
2022/08/27 06:54:14;;;;;;;9.60;3.00;;;;;;;19.25;88.70;100696.98;107137;1273;74978;-83
2022/08/27 06:56:43;;;;;;;9.10;3.00;;;;;;;19.28;88.32;100701.89;107642;1274;72702;-83
2022/08/27 06:59:13;;;;;;;8.80;3.40;;;;;;;19.29;87.99;100704.67;107720;1273;72190;-83
2022/08/27 07:01:43;;;;;;;8.20;3.10;;;;;;;19.35;87.96;100699.21;107767;1272;63272;-82
2022/08/27 07:04:15;;;;;;;10.60;3.10;;;;;;;19.37;87.55;100696.24;107624;1273;61541;-85
2022/08/27 07:06:42;;;;;;;7.40;3.00;;;;;;;19.35;87.20;100699.34;107924;1274;75943;-83
2022/08/27 07:09:10;;;;;;;8.70;3.30;;;;;;;19.35;87.19;100708.04;107311;1274;72562;-83
2022/08/27 07:11:37;;;;;;;9.70;3.10;;;;;;;19.38;87.06;100701.81;107887;1272;72981;-82
2022/08/27 07:14:05;;;;;;;8.70;2.90;;;;;;;19.41;86.77;100702.84;107913;1274;63660;-82
2022/08/27 07:16:33;;;;;;;9.20;3.30;;;;;;;19.47;86.68;100700.95;106840;1274;61259;-84
2022/08/27 07:19:01;;;;;;;10.20;2.80;;;;;;;19.52;86.57;100701.97;106414;1274;76189;-83
2022/08/27 07:21:31;;;;;;;11.90;2.90;;;;;;;19.58;85.91;100708.66;107240;1274;72438;-82
2022/08/27 07:24:02;;;;;;;9.90;2.90;;;;;;;19.64;85.62;100708.70;107495;1273;75056;-84
2022/08/27 07:26:31;;;;;;;8.40;2.90;;;;;;;19.68;85.30;100710.85;108009;1273;62152;-83
2022/08/27 07:28:58;;;;;;;7.30;2.60;;;;;;;19.72;85.01;100704.70;107707;1272;60761;-82
2022/08/27 07:31:26;;;;;;;6.60;2.50;;;;;;;19.76;84.77;100706.54;107943;1273;76397;-84
2022/08/27 07:33:54;;;;;;;9.20;2.70;;;;;;;19.84;84.40;100711.11;107262;1274;73886;-83
2022/08/27 07:36:22;;;;;;;9.60;2.70;;;;;;;19.89;83.84;100711.02;107059;1274;74078;-82
2022/08/27 07:38:51;;;;;;;8.70;2.50;;;;;;;19.93;83.42;100710.23;107398;1274;63250;-84
2022/08/27 07:41:31;;;;;;;9.40;2.90;;;;;;;20.02;83.24;100710.52;107753;1274;61434;-84
2022/08/27 07:46:54;;;;;;;5.30;2.10;;;;;;;20.19;81.88;100711.26;106985;1274;72542;-82
2022/08/27 07:49:22;;;;;;;10.10;2.90;;;;;;;20.22;81.73;100715.69;106718;1274;74524;-83
2022/08/27 07:51:50;;;;;;;6.40;2.60;;;;;;;20.24;81.77;100711.63;107035;1273;62716;-84
2022/08/27 07:54:20;;;;;;;7.40;2.70;;;;;;;20.30;81.94;100710.30;106846;1274;61736;-83
2022/08/27 07:56:47;;;;;;;7.90;2.80;;;;;;;20.42;82.07;100712.45;106661;1273;75310;-83
2022/08/27 07:59:26;;;;;;;5.90;2.60;;;;;;;20.52;81.48;100717.34;107364;1274;71361;-83
2022/08/27 08:01:54;;;;;;;7.50;2.40;;;;;;;20.60;81.17;100717.64;107342;1274;74327;-84
2022/08/27 08:04:22;;;;;;;9.40;2.70;;;;;;;20.68;81.00;100720.63;107387;1273;62202;-83
2022/08/27 08:06:50;;;;;;;7.10;2.50;;;;;;;20.72;80.56;100723.19;107142;1273;61336;-84
2022/08/27 08:09:18;;;;;;;8.60;2.80;;;;;;;20.71;79.67;100725.20;106585;1273;76484;-84
2022/08/27 08:11:46;;;;;;;7.40;2.60;;;;;;;20.64;79.44;100726.86;107394;1273;71902;-83
2022/08/27 08:14:14;;;;;;;7.30;2.60;;;;;;;20.67;80.20;100730.06;106960;1273;74909;-84
2022/08/27 08:16:41;;;;;;;7.30;2.70;;;;;;;20.69;80.13;100730.84;106997;1274;62270;-83
2022/08/27 08:19:08;;;;;;;8.50;2.40;;;;;;;20.73;80.21;100730.76;106836;1272;61990;-83
2022/08/27 08:21:37;;;;;;;6.60;2.60;;;;;;;20.76;79.66;100740.52;107413;1274;76057;-83
2022/08/27 08:24:04;;;;;;;7.80;2.70;;;;;;;20.82;79.60;100739.02;106955;1274;71717;-84
2022/08/27 08:26:32;;;;;;;6.90;2.50;;;;;;;20.86;79.15;100745.66;107038;1274;71995;-83
2022/08/27 08:29:03;;;;;;;6.50;2.40;;;;;;;20.75;78.02;100756.30;107353;1267;62203;-83
2022/08/27 08:31:31;;;;;;;7.80;2.50;;;;;;;20.60;78.28;100756.39;106898;1271;61291;-83
2022/08/27 08:33:58;;;;;;;8.00;2.80;;;;;;;20.49;78.59;100753.94;107126;1271;76110;-83
2022/08/27 08:36:26;;;;;;;10.00;2.50;;;;;;;20.47;79.03;100752.98;107009;1273;71649;-82
2022/08/27 08:38:53;;;;;;;9.40;2.70;;;;;;;20.43;79.09;100759.20;107444;1271;73195;-82
2022/08/27 08:41:32;;;;;;;8.90;2.60;;;;;;;20.37;79.13;100764.32;107721;1271;62346;-83
2022/08/27 08:44:07;;;;;;;7.00;2.40;;;;;;;20.26;79.38;100762.25;107081;1271;61432;-84
2022/08/27 08:46:44;;;;;;;7.90;2.40;;;;;;;20.20;79.92;100763.84;106948;1271;75303;-84
2022/08/27 08:49:29;;;;;;;5.20;2.20;;;;;;;20.17;80.48;100762.27;107382;1271;71443;-83
2022/08/27 08:52:14;;;;;;;7.00;2.60;;;;;;;20.09;80.22;100769.81;106968;1271;72992;-83
2022/08/27 08:55:24;;;;;;;8.60;3.10;;;;;;;20.03;80.44;100764.35;106892;1271;62875;-84
2022/08/27 08:58:11;;;;;;;7.60;2.50;;;;;;;20.07;80.64;100761.14;107217;1271;61281;-83
2022/08/27 09:00:43;;;;;;;7.10;2.60;;;;;;;20.10;80.52;100764.19;107249;1271;75032;-83
2022/08/27 09:03:15;;;;;;;7.90;2.30;;;;;;;20.09;80.43;100763.46;106795;1271;71402;-83
2022/08/27 09:05:52;;;;;;;6.90;2.30;;;;;;;20.09;80.33;100767.94;107280;1271;72928;-83
2022/08/27 09:08:30;;;;;;;9.80;2.60;;;;;;;20.06;80.19;100770.44;107091;1271;62374;-83
2022/08/27 09:11:36;;;;;;;9.00;2.30;;;;;;;20.01;80.34;100773.19;107109;1271;61190;-83
2022/08/27 09:14:34;;;;;;;7.70;2.40;;;;;;;20.02;80.49;100773.16;107618;1271;76526;-83
2022/08/27 09:17:03;;;;;;;7.00;2.40;;;;;;;20.02;80.47;100779.83;106872;1271;71517;-82
2022/08/27 09:19:37;;;;;;;8.80;2.50;;;;;;;20.00;80.50;100776.89;106928;1271;73947;-82
2022/08/27 09:22:35;;;;;;;7.90;2.40;;;;;;;20.02;80.77;100775.94;107088;1271;63741;-82
2022/08/27 09:25:17;;;;;;;5.70;2.10;;;;;;;20.03;80.48;100775.29;106991;1271;61108;-83
2022/08/27 09:27:48;;;;;;;9.30;3.00;;;;;;;20.05;80.34;100774.90;106931;1271;76354;-83
2022/08/27 09:30:22;;;;;;;7.10;2.70;;;;;;;20.12;80.49;100772.56;107001;1271;71872;-84
2022/08/27 09:33:00;;;;;;;7.60;2.60;;;;;;;20.23;80.47;100776.09;107479;1271;72962;-83
2022/08/27 09:35:33;;;;;;;8.80;2.60;;;;;;;20.32;80.02;100778.55;107404;1270;62371;-83
2022/08/27 09:38:01;;;;;;;8.60;2.40;;;;;;;20.36;79.07;100780.30;107561;1269;61258;-83
2022/08/27 09:40:40;;;;;;;7.90;2.40;;;;;;;20.44;78.94;100778.20;107324;1271;75993;-84
2022/08/27 09:43:28;;;;;;;9.40;2.60;;;;;;;20.55;78.55;100784.23;107427;1271;72491;-84
2022/08/27 09:45:58;;;;;;;14.00;2.80;;;;;;;20.61;77.91;100780.40;107902;1270;72387;-83
2022/08/27 09:48:31;;;;;;;7.70;2.30;;;;;;;20.68;77.53;100780.74;108025;1271;63326;-83
2022/08/27 09:51:20;;;;;;;6.70;2.20;;;;;;;20.79;77.70;100778.91;107814;1271;62779;-82
2022/08/27 09:53:52;;;;;;;7.10;2.50;;;;;;;20.87;76.84;100777.56;107787;1271;76233;-82
2022/08/27 09:56:28;;;;;;;7.70;2.40;;;;;;;21.00;76.80;100777.20;107247;1271;70923;-86
2022/08/27 09:59:09;;;;;;;8.80;3.10;;;;;;;21.07;75.89;100785.84;107198;1271;72387;-84
2022/08/27 10:01:50;;;;;;;8.70;2.50;;;;;;;21.06;75.15;100779.13;107443;1271;62295;-85
2022/08/27 10:04:25;;;;;;;6.40;2.40;;;;;;;21.13;75.05;100782.21;108062;1271;61374;-87
2022/08/27 10:06:53;;;;;;;6.40;2.20;;;;;;;21.30;75.35;100777.45;107879;1271;75916;-85
2022/08/27 10:09:34;;;;;;;6.20;2.00;;;;;;;21.50;74.98;100773.70;107383;1271;71356;-85
2022/08/27 10:12:17;;;;;;;6.30;1.90;;;;;;;21.63;73.90;100780.64;107115;1271;74012;-85
2022/08/27 10:14:50;;;;;;;7.60;2.00;;;;;;;21.66;73.05;100777.67;107863;1271;62269;-85
2022/08/27 10:17:43;;;;;;;5.10;1.90;;;;;;;21.81;72.90;100778.91;108088;1271;60850;-84
2022/08/27 10:20:30;;;;;;;7.50;1.80;;;;;;;21.88;71.75;100776.64;107741;1271;76483;-85
2022/08/27 10:23:11;;;;;;;5.80;1.90;;;;;;;21.91;71.46;100779.08;107584;1270;72633;-84
2022/08/27 10:25:57;;;;;;;7.10;2.00;;;;;;;21.91;70.75;100777.60;107869;1271;73127;-85
2022/08/27 10:28:32;;;;;;;5.00;1.90;;;;;;;22.09;70.72;100767.54;107912;1270;63782;-85
2022/08/27 10:31:22;;;;;;;6.30;1.90;;;;;;;22.13;70.22;100770.61;107316;1270;62237;-85
2022/08/27 10:33:58;;;;;;;8.00;2.00;;;;;;;22.22;69.97;100764.10;107291;1271;74952;-85
2022/08/27 10:36:57;;;;;;;6.00;2.00;;;;;;;22.36;69.61;100769.42;107360;1271;72632;-84
2022/08/27 10:39:40;;;;;;;7.70;2.30;;;;;;;22.50;69.08;100767.16;107198;1270;72141;-84
2022/08/27 10:42:34;;;;;;;7.00;2.00;;;;;;;22.63;68.64;100767.89;107754;1270;62246;-83
2022/08/27 10:45:10;;;;;;;5.60;1.90;;;;;;;22.62;68.15;100767.34;107746;1269;61334;-83
2022/08/27 10:48:03;;;;;;;4.40;1.80;;;;;;;22.58;68.21;100767.96;107345;1269;75043;-82
2022/08/27 10:50:43;;;;;;;6.90;1.90;;;;;;;22.58;68.41;100767.48;107046;1271;72502;-83
2022/08/27 10:53:15;;;;;;;7.20;3.70;;;;;;;22.63;68.32;100768.64;107660;1271;72775;-86
2022/08/27 10:55:51;;;;;;;6.00;2.10;;;;;;;22.66;67.92;100764.20;108000;1271;63245;-86
2022/08/27 10:58:48;;;;;;;6.00;2.00;;;;;;;22.72;67.81;100764.98;107463;1270;59873;-85
2022/08/27 11:01:36;;;;;;;7.40;2.20;;;;;;;22.80;66.90;100769.60;107362;1271;75937;-85
2022/08/27 11:04:17;;;;;;;7.20;2.00;;;;;;;22.74;66.10;100770.40;107829;1271;73149;-84
2022/08/27 11:07:06;;;;;;;5.90;2.70;;;;;;;22.68;66.32;100765.63;108049;1270;72958;-86
2022/08/27 11:09:55;;;;;;;7.70;2.20;;;;;;;22.70;65.99;100769.38;107422;1271;63362;-86
2022/08/27 11:12:35;;;;;;;6.40;2.20;;;;;;;22.88;66.50;100762.33;107625;1271;61170;-84
2022/08/27 11:15:17;;;;;;;7.60;2.10;;;;;;;23.23;65.70;100764.66;107254;1271;76331;-83
2022/08/27 11:17:52;;;;;;;5.40;2.10;;;;;;;23.51;64.21;100761.21;107403;1271;71825;-83
2022/08/27 11:20:27;;;;;;;7.00;2.50;;;;;;;23.74;63.45;100760.08;107591;1271;73321;-85
2022/08/27 11:23:07;;;;;;;5.70;2.00;;;;;;;23.95;62.45;100763.32;108042;1271;63640;-83
2022/08/27 11:25:54;;;;;;;6.80;1.70;;;;;;;24.20;61.33;100764.15;107764;1271;60809;-86
2022/08/27 11:28:37;;;;;;;5.30;1.70;;;;;;;24.38;60.58;100765.56;107883;1271;76014;-87
2022/08/27 11:31:24;;;;;;;5.50;1.60;;;;;;;24.64;60.21;100767.91;108120;1271;71489;-82
2022/08/27 11:34:06;;;;;;;5.10;1.80;;;;;;;24.91;59.94;100764.27;108131;1271;73104;-86
2022/08/27 11:37:07;;;;;;;4.70;1.80;;;;;;;25.11;58.70;100769.02;108127;1271;61378;-84
2022/08/27 11:39:55;;;;;;;6.90;2.50;;;;;;;25.25;58.32;100771.94;107730;1270;60979;-85
2022/08/27 11:42:35;;;;;;;4.10;1.50;;;;;;;25.41;57.20;100769.29;108289;1270;75859;-87
2022/08/27 11:45:29;;;;;;;4.70;1.50;;;;;;;25.67;56.80;100770.93;107867;1271;72369;-87